Terminal Aerodrome Forecast
Issued by NWS Duluth, MN

Home | Current Version | Previous Version | Text Only | Print | Product List | Glossary On
Versions: 1 2 3 4 5 6 7 8 9 10 11 12 13 14 15 16 17 18 19 20 21 22 23 24 25 26
000
FTUS43 KDLH 130537
TAFINL
TAF
KINL 130537Z 1306/1406 13008KT P6SM -SN OVC009
     FM130800 13005KT 3SM -SN OVC010
      TEMPO 1309/1313 1 1/2SM -SN OVC008
     FM131300 09004KT 2SM -SN BKN015 OVC025
     FM131800 02007KT P6SM -SN BKN015 OVC025
     FM132000 35008KT P6SM BKN020=

USA.gov is the U.S. government's official web portal to all federal, state and local government web resources and services.